sensor_id;sensor_type;location;lat;lon;timestamp;pressure;altitude;pressure_sealevel;temperature;humidity
16355;BME280;8287;51.644;8.494;2022-10-14T00:02:07;100378.50;;;16.46;84.52
16355;BME280;8287;51.644;8.494;2022-10-14T00:04:34;100375.31;;;16.41;84.38
16355;BME280;8287;51.644;8.494;2022-10-14T00:07:00;100373.44;;;16.41;84.20
16355;BME280;8287;51.644;8.494;2022-10-14T00:09:27;100374.44;;;16.37;84.75
16355;BME280;8287;51.644;8.494;2022-10-14T00:11:53;100371.78;;;16.37;84.31
16355;BME280;8287;51.644;8.494;2022-10-14T00:14:21;100371.22;;;16.31;84.79
16355;BME280;8287;51.644;8.494;2022-10-14T00:16:51;100371.78;;;16.37;85.03
16355;BME280;8287;51.644;8.494;2022-10-14T00:19:18;100357.84;;;16.31;85.08
16355;BME280;8287;51.644;8.494;2022-10-14T00:21:45;100365.97;;;16.35;85.04
16355;BME280;8287;51.644;8.494;2022-10-14T00:24:14;100368.66;;;16.35;85.35
16355;BME280;8287;51.644;8.494;2022-10-14T00:26:41;100367.97;;;16.38;84.83
16355;BME280;8287;51.644;8.494;2022-10-14T00:29:11;100372.31;;;16.30;85.31
16355;BME280;8287;51.644;8.494;2022-10-14T00:31:39;100368.88;;;16.30;84.64
16355;BME280;8287;51.644;8.494;2022-10-14T00:34:06;100356.84;;;16.24;85.31
16355;BME280;8287;51.644;8.494;2022-10-14T00:36:37;100360.53;;;16.31;84.63
16355;BME280;8287;51.644;8.494;2022-10-14T00:39:04;100354.91;;;16.36;83.98
16355;BME280;8287;51.644;8.494;2022-10-14T00:41:32;100362.72;;;16.29;85.07
16355;BME280;8287;51.644;8.494;2022-10-14T00:44:00;100365.41;;;16.29;84.35
16355;BME280;8287;51.644;8.494;2022-10-14T00:46:28;100357.16;;;16.34;84.05
16355;BME280;8287;51.644;8.494;2022-10-14T00:48:58;100360.34;;;16.12;84.64
16355;BME280;8287;51.644;8.494;2022-10-14T00:51:26;100355.00;;;16.12;85.48
16355;BME280;8287;51.644;8.494;2022-10-14T00:53:54;100353.84;;;16.25;84.94
16355;BME280;8287;51.644;8.494;2022-10-14T00:56:23;100351.81;;;16.34;84.24
16355;BME280;8287;51.644;8.494;2022-10-14T00:58:52;100351.16;;;16.37;83.83
16355;BME280;8287;51.644;8.494;2022-10-14T01:01:19;100349.34;;;16.41;83.96
16355;BME280;8287;51.644;8.494;2022-10-14T01:03:45;100349.34;;;16.41;83.71
16355;BME280;8287;51.644;8.494;2022-10-14T01:06:20;100348.47;;;16.37;83.83
16355;BME280;8287;51.644;8.494;2022-10-14T01:08:54;100357.38;;;16.41;83.92
16355;BME280;8287;51.644;8.494;2022-10-14T01:11:28;100350.16;;;16.30;84.37
16355;BME280;8287;51.644;8.494;2022-10-14T01:14:02;100346.38;;;16.31;83.84
16355;BME280;8287;51.644;8.494;2022-10-14T01:16:36;100360.25;;;16.36;83.20
16355;BME280;8287;51.644;8.494;2022-10-14T01:19:27;100351.72;;;16.31;83.97
16355;BME280;8287;51.644;8.494;2022-10-14T01:22:04;100355.03;;;16.40;83.19
16355;BME280;8287;51.644;8.494;2022-10-14T01:24:55;100348.94;;;16.39;83.18
16355;BME280;8287;51.644;8.494;2022-10-14T01:27:42;100351.66;;;16.43;83.40
16355;BME280;8287;51.644;8.494;2022-10-14T01:30:17;100343.44;;;16.36;83.37
16355;BME280;8287;51.644;8.494;2022-10-14T01:33:03;100339.78;;;16.40;83.25
16355;BME280;8287;51.644;8.494;2022-10-14T01:35:40;100330.63;;;16.41;83.74
16355;BME280;8287;51.644;8.494;2022-10-14T01:38:12;100333.50;;;16.36;83.47
16355;BME280;8287;51.644;8.494;2022-10-14T01:40:43;100334.97;;;16.34;84.01
16355;BME280;8287;51.644;8.494;2022-10-14T01:43:12;100330.63;;;16.41;82.94
16355;BME280;8287;51.644;8.494;2022-10-14T01:45:42;100337.53;;;16.42;82.97
16355;BME280;8287;51.644;8.494;2022-10-14T01:48:12;100339.31;;;16.38;83.61
16355;BME280;8287;51.644;8.494;2022-10-14T01:50:42;100341.44;;;16.45;82.87
16355;BME280;8287;51.644;8.494;2022-10-14T01:53:14;100334.44;;;16.40;83.02
16355;BME280;8287;51.644;8.494;2022-10-14T01:55:45;100326.41;;;16.40;83.14
16355;BME280;8287;51.644;8.494;2022-10-14T01:58:14;100318.75;;;16.27;84.25
16355;BME280;8287;51.644;8.494;2022-10-14T02:00:43;100315.91;;;16.35;83.94
16355;BME280;8287;51.644;8.494;2022-10-14T02:03:12;100321.72;;;16.37;83.63
16355;BME280;8287;51.644;8.494;2022-10-14T02:05:44;100317.47;;;16.36;83.50
16355;BME280;8287;51.644;8.494;2022-10-14T02:08:18;100308.69;;;16.36;84.01
16355;BME280;8287;51.644;8.494;2022-10-14T02:10:57;100317.84;;;16.35;84.34
16355;BME280;8287;51.644;8.494;2022-10-14T02:13:35;100315.06;;;16.31;84.19
16355;BME280;8287;51.644;8.494;2022-10-14T02:16:11;100309.44;;;16.36;84.42
16355;BME280;8287;51.644;8.494;2022-10-14T02:18:50;100306.13;;;16.39;84.33
16355;BME280;8287;51.644;8.494;2022-10-14T02:21:23;100303.47;;;16.39;84.38
16355;BME280;8287;51.644;8.494;2022-10-14T02:23:55;100299.13;;;16.35;84.14
16355;BME280;8287;51.644;8.494;2022-10-14T02:26:25;100299.22;;;16.38;83.71
16355;BME280;8287;51.644;8.494;2022-10-14T02:28:53;100289.31;;;16.39;83.77
16355;BME280;8287;51.644;8.494;2022-10-14T02:31:23;100287.75;;;16.38;83.49
16355;BME280;8287;51.644;8.494;2022-10-14T02:33:52;100289.41;;;16.42;83.36
16355;BME280;8287;51.644;8.494;2022-10-14T02:36:22;100288.47;;;16.50;82.94
16355;BME280;8287;51.644;8.494;2022-10-14T02:38:52;100288.88;;;16.52;82.14
16355;BME280;8287;51.644;8.494;2022-10-14T02:41:22;100289.50;;;16.46;82.92
16355;BME280;8287;51.644;8.494;2022-10-14T02:43:50;100282.72;;;16.36;83.15
16355;BME280;8287;51.644;8.494;2022-10-14T02:46:19;100285.50;;;16.40;82.82
16355;BME280;8287;51.644;8.494;2022-10-14T02:48:47;100280.34;;;16.47;82.26
16355;BME280;8287;51.644;8.494;2022-10-14T02:51:13;100283.44;;;16.49;82.71
16355;BME280;8287;51.644;8.494;2022-10-14T02:53:40;100279.91;;;16.45;82.64
16355;BME280;8287;51.644;8.494;2022-10-14T02:56:07;100276.53;;;16.48;82.43
16355;BME280;8287;51.644;8.494;2022-10-14T02:58:33;100277.16;;;16.41;82.63
16355;BME280;8287;51.644;8.494;2022-10-14T03:01:00;100275.59;;;16.40;82.83
16355;BME280;8287;51.644;8.494;2022-10-14T03:03:27;100280.94;;;16.40;82.57
16355;BME280;8287;51.644;8.494;2022-10-14T03:05:55;100278.19;;;16.37;82.92
16355;BME280;8287;51.644;8.494;2022-10-14T03:08:21;100277.81;;;16.38;83.07
16355;BME280;8287;51.644;8.494;2022-10-14T03:10:48;100277.47;;;16.40;82.63
16355;BME280;8287;51.644;8.494;2022-10-14T03:13:15;100265.31;;;16.42;82.49
16355;BME280;8287;51.644;8.494;2022-10-14T03:15:41;100266.22;;;16.34;83.54
16355;BME280;8287;51.644;8.494;2022-10-14T03:18:08;100263.97;;;16.21;84.27
16355;BME280;8287;51.644;8.494;2022-10-14T03:20:35;100267.16;;;16.26;83.98
16355;BME280;8287;51.644;8.494;2022-10-14T03:23:03;100261.63;;;16.19;84.46
16355;BME280;8287;51.644;8.494;2022-10-14T03:25:29;100258.16;;;16.03;85.36
16355;BME280;8287;51.644;8.494;2022-10-14T03:27:56;100255.56;;;16.07;86.16
16355;BME280;8287;51.644;8.494;2022-10-14T03:30:23;100266.13;;;16.15;85.24
16355;BME280;8287;51.644;8.494;2022-10-14T03:32:49;100263.00;;;16.13;85.08
16355;BME280;8287;51.644;8.494;2022-10-14T03:35:16;100265.19;;;16.23;84.35
16355;BME280;8287;51.644;8.494;2022-10-14T03:37:42;100259.66;;;16.16;84.33
16355;BME280;8287;51.644;8.494;2022-10-14T03:40:11;100261.09;;;16.14;84.49
16355;BME280;8287;51.644;8.494;2022-10-14T03:42:38;100264.81;;;16.09;85.08
16355;BME280;8287;51.644;8.494;2022-10-14T03:45:06;100254.81;;;16.06;85.59
16355;BME280;8287;51.644;8.494;2022-10-14T03:47:33;100261.44;;;16.12;84.87
16355;BME280;8287;51.644;8.494;2022-10-14T03:50:00;100261.44;;;16.12;84.77
16355;BME280;8287;51.644;8.494;2022-10-14T03:52:27;100263.44;;;16.15;84.76
16355;BME280;8287;51.644;8.494;2022-10-14T03:54:54;100259.56;;;16.13;84.59
16355;BME280;8287;51.644;8.494;2022-10-14T03:57:21;100256.88;;;16.13;84.39
16355;BME280;8287;51.644;8.494;2022-10-14T03:59:48;100256.44;;;16.11;83.95
16355;BME280;8287;51.644;8.494;2022-10-14T04:02:15;100258.78;;;16.12;84.60
16355;BME280;8287;51.644;8.494;2022-10-14T04:04:41;100261.44;;;16.12;84.61
16355;BME280;8287;51.644;8.494;2022-10-14T04:07:08;100244.78;;;16.03;84.54
16355;BME280;8287;51.644;8.494;2022-10-14T04:09:35;100247.91;;;16.05;84.40
16355;BME280;8287;51.644;8.494;2022-10-14T04:12:01;100250.59;;;16.05;84.37
16355;BME280;8287;51.644;8.494;2022-10-14T04:14:29;100254.44;;;16.08;84.40
16355;BME280;8287;51.644;8.494;2022-10-14T04:16:56;100257.91;;;16.08;84.80
16355;BME280;8287;51.644;8.494;2022-10-14T04:19:22;100244.88;;;16.07;84.87
16355;BME280;8287;51.644;8.494;2022-10-14T04:21:49;100245.66;;;16.07;84.43
16355;BME280;8287;51.644;8.494;2022-10-14T04:24:15;100248.66;;;16.06;84.88
16355;BME280;8287;51.644;8.494;2022-10-14T04:26:42;100243.22;;;16.02;84.75
16355;BME280;8287;51.644;8.494;2022-10-14T04:29:09;100239.00;;;16.01;85.17
16355;BME280;8287;51.644;8.494;2022-10-14T04:31:37;100239.25;;;15.96;85.73
16355;BME280;8287;51.644;8.494;2022-10-14T04:34:03;100240.81;;;15.97;85.24
16355;BME280;8287;51.644;8.494;2022-10-14T04:36:30;100239.00;;;16.01;84.89
16355;BME280;8287;51.644;8.494;2022-10-14T04:38:56;100251.69;;;16.04;84.99
16355;BME280;8287;51.644;8.494;2022-10-14T04:41:23;100242.69;;;15.97;85.61
16355;BME280;8287;51.644;8.494;2022-10-14T04:43:49;100237.88;;;16.02;85.26
16355;BME280;8287;51.644;8.494;2022-10-14T04:46:16;100233.94;;;16.12;84.10
16355;BME280;8287;51.644;8.494;2022-10-14T04:48:46;100240.06;;;16.12;84.20
16355;BME280;8287;51.644;8.494;2022-10-14T04:51:12;100236.53;;;16.08;85.34
16355;BME280;8287;51.644;8.494;2022-10-14T04:53:39;100223.81;;;15.90;85.85
16355;BME280;8287;51.644;8.494;2022-10-14T04:56:06;100214.22;;;15.89;86.24
16355;BME280;8287;51.644;8.494;2022-10-14T04:58:33;100224.41;;;15.99;85.84
16355;BME280;8287;51.644;8.494;2022-10-14T05:00:59;100221.22;;;15.93;86.24
16355;BME280;8287;51.644;8.494;2022-10-14T05:03:26;100209.13;;;15.84;86.78
16355;BME280;8287;51.644;8.494;2022-10-14T05:05:54;100220.09;;;15.94;86.56
16355;BME280;8287;51.644;8.494;2022-10-14T05:08:20;100212.28;;;16.01;85.22
16355;BME280;8287;51.644;8.494;2022-10-14T05:10:47;100208.66;;;15.94;85.94
16355;BME280;8287;51.644;8.494;2022-10-14T05:13:14;100207.44;;;15.91;86.04
16355;BME280;8287;51.644;8.494;2022-10-14T05:15:41;100210.09;;;15.91;86.18
16355;BME280;8287;51.644;8.494;2022-10-14T05:18:08;100210.44;;;15.90;85.98
16355;BME280;8287;51.644;8.494;2022-10-14T05:20:36;100203.88;;;15.87;86.40
16355;BME280;8287;51.644;8.494;2022-10-14T05:23:04;100205.38;;;15.85;86.44
16355;BME280;8287;51.644;8.494;2022-10-14T05:25:31;100207.66;;;15.86;86.43
16355;BME280;8287;51.644;8.494;2022-10-14T05:27:57;100210.53;;;15.93;85.96
16355;BME280;8287;51.644;8.494;2022-10-14T05:30:24;100208.56;;;15.90;86.29
16355;BME280;8287;51.644;8.494;2022-10-14T05:32:51;100204.34;;;15.89;86.77
16355;BME280;8287;51.644;8.494;2022-10-14T05:35:17;100204.97;;;15.98;85.97
16355;BME280;8287;51.644;8.494;2022-10-14T05:37:44;100219.44;;;15.97;85.64
16355;BME280;8287;51.644;8.494;2022-10-14T05:40:12;100202.53;;;15.93;84.96
16355;BME280;8287;51.644;8.494;2022-10-14T05:42:38;100220.69;;;15.60;87.13
16355;BME280;8287;51.644;8.494;2022-10-14T05:45:06;100219.34;;;15.66;87.75
16355;BME280;8287;51.644;8.494;2022-10-14T05:47:32;100206.22;;;15.61;87.19
16355;BME280;8287;51.644;8.494;2022-10-14T05:49:59;100223.56;;;15.67;87.50
16355;BME280;8287;51.644;8.494;2022-10-14T05:52:27;100218.66;;;15.69;86.69
16355;BME280;8287;51.644;8.494;2022-10-14T05:54:54;100212.25;;;15.58;87.42
16355;BME280;8287;51.644;8.494;2022-10-14T05:57:22;100221.59;;;15.64;87.27
16355;BME280;8287;51.644;8.494;2022-10-14T05:59:48;100207.25;;;15.57;87.23
16355;BME280;8287;51.644;8.494;2022-10-14T06:02:15;100215.78;;;15.62;87.19
16355;BME280;8287;51.644;8.494;2022-10-14T06:04:42;100212.66;;;15.72;87.29
16355;BME280;8287;51.644;8.494;2022-10-14T06:07:08;100219.66;;;15.77;86.48
16355;BME280;8287;51.644;8.494;2022-10-14T06:09:35;100218.09;;;15.76;86.68
16355;BME280;8287;51.644;8.494;2022-10-14T06:12:02;100213.59;;;15.80;86.58
16355;BME280;8287;51.644;8.494;2022-10-14T06:14:30;100215.84;;;15.78;86.43
16355;BME280;8287;51.644;8.494;2022-10-14T06:16:57;100217.41;;;15.79;86.93
16355;BME280;8287;51.644;8.494;2022-10-14T06:19:23;100212.16;;;15.82;86.85
16355;BME280;8287;51.644;8.494;2022-10-14T06:21:50;100217.25;;;15.87;86.49
16355;BME280;8287;51.644;8.494;2022-10-14T06:24:16;100215.69;;;15.86;86.61
16355;BME280;8287;51.644;8.494;2022-10-14T06:26:43;100211.47;;;15.85;86.83
16355;BME280;8287;51.644;8.494;2022-10-14T06:29:10;100202.75;;;15.88;87.01
16355;BME280;8287;51.644;8.494;2022-10-14T06:31:38;100201.22;;;15.87;86.82
16355;BME280;8287;51.644;8.494;2022-10-14T06:34:04;100192.53;;;15.90;86.57
16355;BME280;8287;51.644;8.494;2022-10-14T06:36:31;100202.94;;;15.95;86.41
16355;BME280;8287;51.644;8.494;2022-10-14T06:38:58;100203.75;;;15.96;86.72
16355;BME280;8287;51.644;8.494;2022-10-14T06:41:25;100196.47;;;15.96;86.75
16355;BME280;8287;51.644;8.494;2022-10-14T06:43:52;100206.50;;;15.99;86.67
16355;BME280;8287;51.644;8.494;2022-10-14T06:46:18;100202.94;;;15.95;87.29
16355;BME280;8287;51.644;8.494;2022-10-14T06:48:46;100199.00;;;15.89;88.41
16355;BME280;8287;51.644;8.494;2022-10-14T06:51:13;100198.53;;;15.87;89.02
16355;BME280;8287;51.644;8.494;2022-10-14T06:53:41;100201.41;;;15.94;88.65
16355;BME280;8287;51.644;8.494;2022-10-14T06:56:08;100198.41;;;15.96;88.30
16355;BME280;8287;51.644;8.494;2022-10-14T06:58:36;100193.56;;;16.01;88.49
16355;BME280;8287;51.644;8.494;2022-10-14T07:01:03;100200.66;;;16.09;87.97
16355;BME280;8287;51.644;8.494;2022-10-14T07:03:30;100203.88;;;15.87;89.70
16355;BME280;8287;51.644;8.494;2022-10-14T07:06:03;100194.59;;;15.97;89.15
16355;BME280;8287;51.644;8.494;2022-10-14T07:08:30;100191.31;;;16.03;88.61
16355;BME280;8287;51.644;8.494;2022-10-14T07:10:56;100194.53;;;16.09;88.52
16355;BME280;8287;51.644;8.494;2022-10-14T07:13:23;100190.66;;;16.06;88.44
16355;BME280;8287;51.644;8.494;2022-10-14T07:15:50;100189.41;;;15.88;89.99
16355;BME280;8287;51.644;8.494;2022-10-14T07:18:17;100195.44;;;15.85;89.94
16355;BME280;8287;51.644;8.494;2022-10-14T07:20:44;100195.59;;;15.77;90.93
16355;BME280;8287;51.644;8.494;2022-10-14T07:23:12;100191.75;;;15.62;91.51
16355;BME280;8287;51.644;8.494;2022-10-14T07:25:39;100191.66;;;15.59;91.57
16355;BME280;8287;51.644;8.494;2022-10-14T07:28:06;100191.56;;;15.55;92.45
16355;BME280;8287;51.644;8.494;2022-10-14T07:30:33;100182.44;;;15.56;92.72
16355;BME280;8287;51.644;8.494;2022-10-14T07:32:59;100187.59;;;15.49;93.51
16355;BME280;8287;51.644;8.494;2022-10-14T07:35:26;100189.22;;;15.54;94.27
16355;BME280;8287;51.644;8.494;2022-10-14T07:37:54;100186.22;;;15.55;94.18
16355;BME280;8287;51.644;8.494;2022-10-14T07:40:22;100186.41;;;15.62;94.80
16355;BME280;8287;51.644;8.494;2022-10-14T07:42:48;100185.78;;;15.53;94.47
16355;BME280;8287;51.644;8.494;2022-10-14T07:45:15;100184.19;;;15.64;94.74
16355;BME280;8287;51.644;8.494;2022-10-14T07:47:43;100172.31;;;15.77;94.68
16355;BME280;8287;51.644;8.494;2022-10-14T07:50:10;100182.91;;;15.74;93.80
16355;BME280;8287;51.644;8.494;2022-10-14T07:52:36;100181.97;;;15.82;93.30
16355;BME280;8287;51.644;8.494;2022-10-14T07:55:04;100182.16;;;15.73;93.55
16355;BME280;8287;51.644;8.494;2022-10-14T07:57:32;100188.34;;;15.77;94.26
16355;BME280;8287;51.644;8.494;2022-10-14T07:59:59;100178.63;;;15.85;93.68
16355;BME280;8287;51.644;8.494;2022-10-14T08:02:26;100180.94;;;15.86;93.83
16355;BME280;8287;51.644;8.494;2022-10-14T08:04:54;100169.75;;;15.81;94.52
16355;BME280;8287;51.644;8.494;2022-10-14T08:07:21;100163.19;;;15.78;95.30
16355;BME280;8287;51.644;8.494;2022-10-14T08:09:49;100174.06;;;15.85;95.36
16355;BME280;8287;51.644;8.494;2022-10-14T08:12:18;100173.56;;;15.95;94.94
16355;BME280;8287;51.644;8.494;2022-10-14T08:14:46;100167.53;;;15.98;94.71
16355;BME280;8287;51.644;8.494;2022-10-14T08:17:12;100162.19;;;16.14;95.04
16355;BME280;8287;51.644;8.494;2022-10-14T08:19:39;100171.09;;;16.18;94.44
16355;BME280;8287;51.644;8.494;2022-10-14T08:22:05;100157.38;;;16.19;95.22
16355;BME280;8287;51.644;8.494;2022-10-14T08:24:32;100157.03;;;16.36;94.79
16355;BME280;8287;51.644;8.494;2022-10-14T08:26:58;100160.66;;;16.59;94.25
16355;BME280;8287;51.644;8.494;2022-10-14T08:29:25;100150.66;;;16.56;93.08
16355;BME280;8287;51.644;8.494;2022-10-14T08:31:53;100157.66;;;16.45;93.13
16355;BME280;8287;51.644;8.494;2022-10-14T08:34:20;100154.50;;;16.74;92.97
16355;BME280;8287;51.644;8.494;2022-10-14T08:36:49;100150.31;;;16.92;91.14
16355;BME280;8287;51.644;8.494;2022-10-14T08:39:16;100153.84;;;16.96;90.74
16355;BME280;8287;51.644;8.494;2022-10-14T08:41:53;100159.09;;;17.27;89.74
16355;BME280;8287;51.644;8.494;2022-10-14T08:44:25;100158.63;;;17.40;89.23
16355;BME280;8287;51.644;8.494;2022-10-14T08:46:55;100153.41;;;17.47;87.88
16355;BME280;8287;51.644;8.494;2022-10-14T08:49:28;100148.53;;;17.53;88.41
16355;BME280;8287;51.644;8.494;2022-10-14T08:52:00;100152.03;;;17.76;89.54
16355;BME280;8287;51.644;8.494;2022-10-14T08:54:34;100140.25;;;18.03;88.73
16355;BME280;8287;51.644;8.494;2022-10-14T08:57:02;100146.41;;;18.26;86.63
16355;BME280;8287;51.644;8.494;2022-10-14T08:59:31;100155.88;;;18.42;86.84
16355;BME280;8287;51.644;8.494;2022-10-14T09:02:07;100154.25;;;18.60;83.98
16355;BME280;8287;51.644;8.494;2022-10-14T09:04:38;100153.78;;;18.81;81.04
16355;BME280;8287;51.644;8.494;2022-10-14T09:07:04;100153.47;;;18.86;80.33
16355;BME280;8287;51.644;8.494;2022-10-14T09:09:36;100148.09;;;18.86;78.71
16355;BME280;8287;51.644;8.494;2022-10-14T09:12:06;100142.72;;;18.86;77.95
16355;BME280;8287;51.644;8.494;2022-10-14T09:14:40;100141.59;;;18.87;77.60
16355;BME280;8287;51.644;8.494;2022-10-14T09:17:14;100142.38;;;18.87;77.69
16355;BME280;8287;51.644;8.494;2022-10-14T09:19:45;100135.19;;;18.95;76.73
16355;BME280;8287;51.644;8.494;2022-10-14T09:22:14;100118.44;;;19.05;77.51
16355;BME280;8287;51.644;8.494;2022-10-14T09:24:41;100118.75;;;19.00;76.13
16355;BME280;8287;51.644;8.494;2022-10-14T09:27:12;100111.00;;;18.95;74.63
16355;BME280;8287;51.644;8.494;2022-10-14T09:29:42;100118.44;;;19.05;76.07
16355;BME280;8287;51.644;8.494;2022-10-14T09:32:14;100119.66;;;19.11;76.12
16355;BME280;8287;51.644;8.494;2022-10-14T09:34:45;100118.22;;;19.17;74.50
16355;BME280;8287;51.644;8.494;2022-10-14T09:37:26;100112.84;;;19.17;74.84
16355;BME280;8287;51.644;8.494;2022-10-14T09:39:57;100109.75;;;19.18;73.96
16355;BME280;8287;51.644;8.494;2022-10-14T09:42:27;100107.03;;;19.15;73.66
16355;BME280;8287;51.644;8.494;2022-10-14T09:45:09;100104.84;;;19.20;73.05
16355;BME280;8287;51.644;8.494;2022-10-14T09:47:45;100101.69;;;19.18;72.98
16355;BME280;8287;51.644;8.494;2022-10-14T09:50:24;100112.28;;;19.34;73.30
16355;BME280;8287;51.644;8.494;2022-10-14T09:52:54;100106.19;;;19.37;73.02
16355;BME280;8287;51.644;8.494;2022-10-14T09:55:22;100102.44;;;19.45;72.65
16355;BME280;8287;51.644;8.494;2022-10-14T09:58:00;100092.03;;;19.43;71.47
16355;BME280;8287;51.644;8.494;2022-10-14T10:00:30;100087.75;;;19.39;72.04
16355;BME280;8287;51.644;8.494;2022-10-14T10:02:59;100081.75;;;19.49;71.63
16355;BME280;8287;51.644;8.494;2022-10-14T10:05:27;100089.47;;;19.54;71.69
16355;BME280;8287;51.644;8.494;2022-10-14T10:08:07;100076.13;;;19.64;71.65
16355;BME280;8287;51.644;8.494;2022-10-14T10:10:40;100080.81;;;19.71;71.45
16355;BME280;8287;51.644;8.494;2022-10-14T10:13:20;100081.22;;;19.76;71.31
16355;BME280;8287;51.644;8.494;2022-10-14T10:15:56;100070.91;;;19.78;70.31
16355;BME280;8287;51.644;8.494;2022-10-14T10:18:25;100070.78;;;19.68;69.44
16355;BME280;8287;51.644;8.494;2022-10-14T10:21:05;100063.09;;;19.66;70.28
16355;BME280;8287;51.644;8.494;2022-10-14T10:23:34;100065.09;;;19.76;70.01
16355;BME280;8287;51.644;8.494;2022-10-14T10:26:15;100077.75;;;19.72;68.73
16355;BME280;8287;51.644;8.494;2022-10-14T10:28:47;100071.66;;;19.79;69.89
16355;BME280;8287;51.644;8.494;2022-10-14T10:31:26;100060.16;;;19.78;69.68
16355;BME280;8287;51.644;8.494;2022-10-14T10:34:03;100058.53;;;19.74;68.48
16355;BME280;8287;51.644;8.494;2022-10-14T10:36:36;100061.66;;;19.76;70.11
16355;BME280;8287;51.644;8.494;2022-10-14T10:39:12;100056.31;;;19.79;69.77
16355;BME280;8287;51.644;8.494;2022-10-14T10:41:53;100052.56;;;19.91;70.06
16355;BME280;8287;51.644;8.494;2022-10-14T10:44:34;100050.31;;;20.00;69.83
16355;BME280;8287;51.644;8.494;2022-10-14T10:47:22;100036.06;;;19.96;69.58
16355;BME280;8287;51.644;8.494;2022-10-14T10:50:00;100026.56;;;20.05;69.42
16355;BME280;8287;51.644;8.494;2022-10-14T10:52:45;100029.69;;;20.11;69.59
16355;BME280;8287;51.644;8.494;2022-10-14T10:55:22;100018.94;;;20.14;68.93
16355;BME280;8287;51.644;8.494;2022-10-14T10:58:00;100020.84;;;20.14;69.07
16355;BME280;8287;51.644;8.494;2022-10-14T11:00:32;100020.50;;;20.19;68.71
16355;BME280;8287;51.644;8.494;2022-10-14T11:03:15;100022.06;;;20.23;68.36
16355;BME280;8287;51.644;8.494;2022-10-14T11:05:56;100012.84;;;20.24;69.09
16355;BME280;8287;51.644;8.494;2022-10-14T11:11:40;100014.38;;;20.25;67.39
16355;BME280;8287;51.644;8.494;2022-10-14T11:14:38;100008.72;;;20.37;68.13
16355;BME280;8287;51.644;8.494;2022-10-14T11:17:15;100006.06;;;20.47;68.07
16355;BME280;8287;51.644;8.494;2022-10-14T11:19:50;100003.78;;;20.56;68.04
16355;BME280;8287;51.644;8.494;2022-10-14T11:22:32;100002.28;;;20.62;68.29
16355;BME280;8287;51.644;8.494;2022-10-14T11:25:12;99997.28;;;20.61;67.38
16355;BME280;8287;51.644;8.494;2022-10-14T11:27:49;99998.44;;;20.63;66.83
16355;BME280;8287;51.644;8.494;2022-10-14T11:30:24;99997.56;;;20.42;66.67
16355;BME280;8287;51.644;8.494;2022-10-14T11:33:18;99987.97;;;20.44;66.46
16355;BME280;8287;51.644;8.494;2022-10-14T11:35:59;99998.75;;;20.48;66.97
16355;BME280;8287;51.644;8.494;2022-10-14T11:38:47;99988.31;;;20.39;66.91
16355;BME280;8287;51.644;8.494;2022-10-14T11:41:25;99975.28;;;20.48;66.88
16355;BME280;8287;51.644;8.494;2022-10-14T11:44:02;99988.78;;;20.55;66.78
16355;BME280;8287;51.644;8.494;2022-10-14T11:46:35;99984.56;;;20.58;66.60
16355;BME280;8287;51.644;8.494;2022-10-14T11:49:08;99980.31;;;20.53;66.31
16355;BME280;8287;51.644;8.494;2022-10-14T11:51:41;99981.09;;;20.57;66.82
16355;BME280;8287;51.644;8.494;2022-10-14T11:54:13;99975.28;;;20.48;66.90
16355;BME280;8287;51.644;8.494;2022-10-14T11:56:44;99967.22;;;20.42;67.03
16355;BME280;8287;51.644;8.494;2022-10-14T11:59:28;99971.13;;;20.58;66.98
16355;BME280;8287;51.644;8.494;2022-10-14T12:02:11;99969.97;;;20.62;66.66
16355;BME280;8287;51.644;8.494;2022-10-14T12:04:42;99962.69;;;20.66;66.71
16355;BME280;8287;51.644;8.494;2022-10-14T12:07:14;99963.81;;;20.65;65.91
16355;BME280;8287;51.644;8.494;2022-10-14T12:09:49;99956.47;;;20.55;66.43
16355;BME280;8287;51.644;8.494;2022-10-14T12:12:18;99951.16;;;20.66;66.35
16355;BME280;8287;51.644;8.494;2022-10-14T12:14:50;99952.31;;;20.72;67.06
16355;BME280;8287;51.644;8.494;2022-10-14T12:17:24;99959.28;;;20.83;66.59
16355;BME280;8287;51.644;8.494;2022-10-14T12:19:53;99959.25;;;20.76;66.65
16355;BME280;8287;51.644;8.494;2022-10-14T12:22:22;99952.34;;;20.79;65.52
16355;BME280;8287;51.644;8.494;2022-10-14T12:24:52;99946.91;;;20.61;66.29
16355;BME280;8287;51.644;8.494;2022-10-14T12:27:21;99942.31;;;20.72;65.99
16355;BME280;8287;51.644;8.494;2022-10-14T12:29:49;99935.03;;;20.76;64.98
16355;BME280;8287;51.644;8.494;2022-10-14T12:32:20;99929.25;;;20.85;65.06
16355;BME280;8287;51.644;8.494;2022-10-14T12:34:48;99924.28;;;20.83;65.12
16355;BME280;8287;51.644;8.494;2022-10-14T12:40:22;99919.31;;;20.89;65.12
16355;BME280;8287;51.644;8.494;2022-10-14T12:42:55;99921.56;;;20.76;65.46
16355;BME280;8287;51.644;8.494;2022-10-14T12:45:24;99905.00;;;20.78;65.82
16355;BME280;8287;51.644;8.494;2022-10-14T12:48:01;99917.31;;;20.82;64.85
16355;BME280;8287;51.644;8.494;2022-10-14T12:50:30;99926.19;;;20.79;65.59
16355;BME280;8287;51.644;8.494;2022-10-14T12:53:03;99913.06;;;20.67;64.77
16355;BME280;8287;51.644;8.494;2022-10-14T12:55:38;99911.56;;;20.84;65.33
16355;BME280;8287;51.644;8.494;2022-10-14T12:58:22;99910.00;;;20.79;65.41
16355;BME280;8287;51.644;8.494;2022-10-14T13:00:53;99911.16;;;20.71;64.57
16355;BME280;8287;51.644;8.494;2022-10-14T13:03:24;99911.56;;;20.80;64.82
16355;BME280;8287;51.644;8.494;2022-10-14T13:05:52;99906.94;;;20.74;64.82
16355;BME280;8287;51.644;8.494;2022-10-14T13:08:26;99905.34;;;20.62;64.69
16355;BME280;8287;51.644;8.494;2022-10-14T13:11:13;99897.28;;;20.66;64.04
16355;BME280;8287;51.644;8.494;2022-10-14T13:13:59;99890.00;;;20.66;64.55
16355;BME280;8287;51.644;8.494;2022-10-14T13:19:41;99903.88;;;20.75;64.54
16355;BME280;8287;51.644;8.494;2022-10-14T13:22:34;99895.38;;;20.73;65.08
16355;BME280;8287;51.644;8.494;2022-10-14T13:25:09;99885.78;;;20.76;65.30
16355;BME280;8287;51.644;8.494;2022-10-14T13:27:45;99879.22;;;20.73;65.05
16355;BME280;8287;51.644;8.494;2022-10-14T13:30:17;99883.84;;;20.76;65.19